createdAt,value
2018-09-23T00:00:10.569Z,0
2018-09-23T00:01:11.242Z,0
2018-09-23T00:02:11.914Z,0
2018-09-23T00:03:12.587Z,0
2018-09-23T00:04:13.261Z,0
2018-09-23T00:05:13.936Z,0
2018-09-23T00:06:14.625Z,0
2018-09-23T00:07:15.325Z,0
2018-09-23T00:08:16.000Z,0
2018-09-23T00:09:16.671Z,0
2018-09-23T00:10:17.344Z,0
2018-09-23T00:11:18.017Z,0
2018-09-23T00:12:18.738Z,0
2018-09-23T00:13:19.406Z,0
2018-09-23T00:14:20.079Z,0
2018-09-23T00:15:20.753Z,0
2018-09-23T00:16:21.426Z,0
2018-09-23T00:17:22.101Z,0
2018-09-23T00:18:22.774Z,0
2018-09-23T00:19:23.447Z,0
2018-09-23T00:20:24.119Z,0
2018-09-23T00:21:24.793Z,0
2018-09-23T00:22:25.465Z,0
2018-09-23T00:23:26.138Z,0
2018-09-23T00:24:26.812Z,0
2018-09-23T00:25:27.486Z,0
2018-09-23T00:26:28.157Z,0
2018-09-23T00:27:28.830Z,0
2018-09-23T00:28:29.505Z,0
2018-09-23T00:29:30.224Z,0
2018-09-23T00:30:30.898Z,0
2018-09-23T00:31:31.571Z,0
2018-09-23T00:32:32.243Z,0
2018-09-23T00:33:32.967Z,0
2018-09-23T00:34:33.640Z,0
2018-09-23T00:35:34.316Z,0
2018-09-23T00:36:34.988Z,0
2018-09-23T00:37:35.660Z,0
2018-09-23T00:38:36.335Z,0
2018-09-23T00:39:37.013Z,0
2018-09-23T00:40:37.680Z,0
2018-09-23T00:41:38.353Z,0
2018-09-23T00:42:39.024Z,0
2018-09-23T00:43:39.697Z,0
2018-09-23T00:44:40.371Z,0
2018-09-23T00:45:41.042Z,0
2018-09-23T00:46:41.716Z,0
2018-09-23T00:47:42.387Z,0
2018-09-23T00:48:43.126Z,0
2018-09-23T00:49:43.827Z,0
2018-09-23T00:50:44.499Z,0
2018-09-23T00:51:45.171Z,0
2018-09-23T00:52:45.843Z,0
2018-09-23T00:53:46.520Z,0
2018-09-23T00:54:47.188Z,0
2018-09-23T00:55:47.859Z,0
2018-09-23T00:56:48.533Z,0
2018-09-23T00:57:49.206Z,0
2018-09-23T00:58:49.879Z,0
2018-09-23T00:59:50.551Z,0
2018-09-23T01:00:51.224Z,0
2018-09-23T01:01:51.898Z,0
2018-09-23T01:02:52.617Z,0
2018-09-23T01:03:53.288Z,0
2018-09-23T01:04:53.959Z,0
2018-09-23T01:05:54.634Z,0
2018-09-23T01:06:55.305Z,0
2018-09-23T01:07:55.980Z,0
2018-09-23T01:08:56.652Z,0
2018-09-23T01:09:57.327Z,0
2018-09-23T01:10:58.000Z,0
2018-09-23T01:11:58.677Z,0
2018-09-23T01:12:59.390Z,0
2018-09-23T01:14:00.064Z,0
2018-09-23T01:15:00.737Z,0
2018-09-23T01:16:01.411Z,0
2018-09-23T01:17:02.087Z,0
2018-09-23T01:18:02.802Z,0
2018-09-23T01:19:03.475Z,0
2018-09-23T01:20:04.149Z,0
2018-09-23T01:21:04.820Z,0
2018-09-23T01:22:05.501Z,0
2018-09-23T01:23:06.214Z,0
2018-09-23T01:24:06.888Z,0
2018-09-23T01:25:07.560Z,0
2018-09-23T01:26:08.234Z,0
2018-09-23T01:27:08.905Z,0
2018-09-23T01:28:09.579Z,0
2018-09-23T01:29:10.251Z,0
2018-09-23T01:30:10.926Z,0
2018-09-23T01:31:11.598Z,0
2018-09-23T01:32:12.270Z,0
2018-09-23T01:33:12.942Z,0
2018-09-23T01:34:13.615Z,0
2018-09-23T01:35:14.293Z,0
2018-09-23T01:36:14.965Z,0
2018-09-23T01:37:15.679Z,0
2018-09-23T01:38:16.350Z,0
2018-09-23T01:39:17.027Z,0
2018-09-23T01:40:17.743Z,0
2018-09-23T01:41:18.419Z,0
2018-09-23T01:42:19.133Z,0
2018-09-23T01:43:19.806Z,0
2018-09-23T01:44:20.508Z,0
2018-09-23T01:45:21.152Z,0
2018-09-23T01:46:21.868Z,0
2018-09-23T01:47:22.545Z,0
2018-09-23T01:48:23.215Z,0
2018-09-23T01:49:23.891Z,0
2018-09-23T01:50:24.559Z,0
2018-09-23T01:51:25.232Z,0
2018-09-23T01:52:25.914Z,0
2018-09-23T01:53:26.576Z,0
2018-09-23T01:54:27.248Z,0
2018-09-23T01:55:27.922Z,0
2018-09-23T01:56:28.600Z,0
2018-09-23T01:57:29.269Z,0
2018-09-23T01:58:30.026Z,0
2018-09-23T01:59:30.666Z,0
2018-09-23T02:00:31.338Z,0
2018-09-23T02:01:32.011Z,0
2018-09-23T02:02:32.682Z,0
2018-09-23T02:03:33.357Z,0
2018-09-23T02:04:34.028Z,0
2018-09-23T02:05:34.701Z,0
2018-09-23T02:06:35.372Z,0
2018-09-23T02:07:36.045Z,0
2018-09-23T02:08:36.762Z,0
2018-09-23T02:09:37.480Z,0
2018-09-23T02:10:38.152Z,0
2018-09-23T02:11:38.826Z,0
2018-09-23T02:12:39.498Z,0
2018-09-23T02:13:40.171Z,0
2018-09-23T02:14:40.842Z,0
2018-09-23T02:15:41.515Z,0
2018-09-23T02:16:42.189Z,0
2018-09-23T02:17:42.862Z,0
2018-09-23T02:18:43.534Z,0
2018-09-23T02:19:44.206Z,0
2018-09-23T02:20:44.881Z,0
2018-09-23T02:21:45.552Z,0
2018-09-23T02:22:46.272Z,0
2018-09-23T02:23:46.990Z,0
2018-09-23T02:24:47.663Z,0
2018-09-23T02:25:48.336Z,0
2018-09-23T02:26:49.009Z,0
2018-09-23T02:27:49.683Z,0
2018-09-23T02:28:50.354Z,0
2018-09-23T02:29:51.026Z,0
2018-09-23T02:30:51.705Z,0
2018-09-23T02:31:52.372Z,0
2018-09-23T02:32:53.093Z,0
2018-09-23T02:33:53.764Z,0
2018-09-23T02:34:54.436Z,0
2018-09-23T02:35:55.109Z,0
2018-09-23T02:36:55.783Z,0
2018-09-23T02:37:56.454Z,0
2018-09-23T02:38:57.127Z,0
2018-09-23T02:39:57.800Z,0
2018-09-23T02:40:58.472Z,0
2018-09-23T02:41:59.145Z,0
2018-09-23T02:42:59.818Z,0
2018-09-23T02:44:00.491Z,0
2018-09-23T02:45:01.164Z,0
2018-09-23T02:46:01.837Z,0
2018-09-23T02:47:02.555Z,0
2018-09-23T02:48:03.227Z,0
2018-09-23T02:49:03.900Z,0
2018-09-23T02:50:04.581Z,0
2018-09-23T02:51:05.249Z,0
2018-09-23T02:52:05.918Z,0
2018-09-23T02:53:06.590Z,0
2018-09-23T02:54:07.266Z,0
2018-09-23T02:55:07.937Z,0
2018-09-23T02:56:08.611Z,0
2018-09-23T02:57:09.283Z,0
2018-09-23T02:58:09.954Z,0
2018-09-23T02:59:10.627Z,0
2018-09-23T03:00:11.300Z,0
2018-09-23T03:01:11.972Z,0
2018-09-23T03:02:12.644Z,0
2018-09-23T03:03:13.318Z,0
2018-09-23T03:04:13.990Z,0
2018-09-23T03:05:14.662Z,0
2018-09-23T03:06:15.334Z,0
2018-09-23T03:07:16.009Z,0
2018-09-23T03:08:16.682Z,0
2018-09-23T03:09:17.357Z,0
2018-09-23T03:10:18.026Z,0
2018-09-23T03:11:18.697Z,0
2018-09-23T03:12:19.372Z,0
2018-09-23T03:13:20.084Z,0
2018-09-23T03:14:20.765Z,0
2018-09-23T03:15:21.444Z,0
2018-09-23T03:16:22.154Z,0
2018-09-23T03:17:22.826Z,0
2018-09-23T03:18:23.499Z,0
2018-09-23T03:19:24.170Z,0
2018-09-23T03:20:24.844Z,0
2018-09-23T03:21:25.516Z,0
2018-09-23T03:22:26.188Z,0
2018-09-23T03:23:26.861Z,0
2018-09-23T03:24:27.536Z,0
2018-09-23T03:25:28.208Z,0
2018-09-23T03:26:28.888Z,0
2018-09-23T03:27:29.553Z,0
2018-09-23T03:28:30.225Z,0
2018-09-23T03:29:30.898Z,0
2018-09-23T03:30:31.571Z,0
2018-09-23T03:31:32.244Z,0
2018-09-23T03:32:32.937Z,0
2018-09-23T03:33:33.635Z,0
2018-09-23T03:34:34.308Z,0
2018-09-23T03:35:34.979Z,0
2018-09-23T03:36:35.652Z,0
2018-09-23T03:37:36.326Z,0
2018-09-23T03:38:36.996Z,0
2018-09-23T03:39:37.670Z,0
2018-09-23T03:40:38.341Z,0
2018-09-23T03:41:39.015Z,0
2018-09-23T03:42:39.687Z,0
2018-09-23T03:43:40.360Z,0
2018-09-23T03:44:41.032Z,0
2018-09-23T03:45:41.704Z,0
2018-09-23T03:46:42.379Z,0
2018-09-23T03:47:43.050Z,0
2018-09-23T03:48:43.723Z,0
2018-09-23T03:49:44.395Z,0
2018-09-23T03:50:45.069Z,0
2018-09-23T03:51:45.741Z,0
2018-09-23T03:52:46.414Z,0
2018-09-23T03:53:47.092Z,0
2018-09-23T03:54:47.804Z,0
2018-09-23T03:55:48.531Z,0
2018-09-23T03:56:49.248Z,0
2018-09-23T03:57:50.003Z,0
2018-09-23T03:58:50.636Z,0
2018-09-23T03:59:51.306Z,0
2018-09-23T04:00:51.979Z,0
2018-09-23T04:01:52.651Z,0
2018-09-23T04:02:53.325Z,0
2018-09-23T04:03:53.997Z,0
2018-09-23T04:04:54.670Z,0
2018-09-23T04:05:55.341Z,0
2018-09-23T04:06:56.015Z,0
2018-09-23T04:07:56.689Z,0
2018-09-23T04:08:57.363Z,0
2018-09-23T04:09:58.033Z,0
2018-09-23T04:10:58.707Z,0
2018-09-23T04:11:59.458Z,0
2018-09-23T04:13:00.053Z,0
2018-09-23T04:14:00.725Z,0
2018-09-23T04:15:01.399Z,0
2018-09-23T04:16:02.070Z,0
2018-09-23T04:17:02.745Z,0
2018-09-23T04:18:03.415Z,0
2018-09-23T04:19:04.088Z,0
2018-09-23T04:20:04.765Z,0
2018-09-23T04:21:05.433Z,0
2018-09-23T04:22:06.108Z,0
2018-09-23T04:23:06.779Z,0
2018-09-23T04:24:07.453Z,0
2018-09-23T04:25:08.137Z,0
2018-09-23T04:26:08.843Z,0
2018-09-23T04:27:09.515Z,0
2018-09-23T04:28:10.189Z,0
2018-09-23T04:29:10.861Z,0
2018-09-23T04:30:11.541Z,0
2018-09-23T04:31:12.252Z,0
2018-09-23T04:32:12.926Z,0
2018-09-23T04:33:13.598Z,0
2018-09-23T04:34:14.270Z,0
2018-09-23T04:35:14.943Z,0
2018-09-23T04:36:15.614Z,0
2018-09-23T04:37:16.289Z,0
2018-09-23T04:38:16.961Z,0
2018-09-23T04:39:17.633Z,0
2018-09-23T04:40:18.305Z,0
2018-09-23T04:41:18.979Z,0
2018-09-23T04:42:19.650Z,0
2018-09-23T04:43:20.324Z,4
2018-09-23T04:44:21.041Z,0
2018-09-23T04:45:21.715Z,0
2018-09-23T04:46:22.387Z,4
2018-09-23T04:47:23.061Z,4
2018-09-23T04:48:23.732Z,8
2018-09-23T04:49:24.406Z,4
2018-09-23T04:50:25.077Z,4
2018-09-23T04:51:25.751Z,8
2018-09-23T04:52:26.422Z,8
2018-09-23T04:53:27.095Z,8
2018-09-23T04:54:27.771Z,12
2018-09-23T04:55:28.525Z,12
2018-09-23T04:56:29.118Z,16
2018-09-23T04:57:29.791Z,20
2018-09-23T04:58:30.469Z,20
2018-09-23T04:59:31.186Z,20
2018-09-23T05:00:31.850Z,20
2018-09-23T05:01:32.523Z,24
2018-09-23T05:02:33.201Z,28
2018-09-23T05:03:33.872Z,28
2018-09-23T05:04:34.547Z,32
2018-09-23T05:05:35.219Z,36
2018-09-23T05:06:35.895Z,36
2018-09-23T05:07:36.566Z,36
2018-09-23T05:08:37.239Z,40
2018-09-23T05:09:37.913Z,44
2018-09-23T05:10:38.590Z,48
2018-09-23T05:11:39.263Z,56
2018-09-23T05:12:39.937Z,60
2018-09-23T05:13:40.610Z,68
2018-09-23T05:14:41.285Z,68
2018-09-23T05:15:41.959Z,72
2018-09-23T05:16:42.634Z,76
2018-09-23T05:17:43.307Z,80
2018-09-23T05:18:43.982Z,88
2018-09-23T05:19:44.655Z,100
2018-09-23T05:20:45.373Z,116
2018-09-23T05:21:46.053Z,136
2018-09-23T05:22:46.726Z,152
2018-09-23T05:23:47.441Z,172
2018-09-23T05:24:48.076Z,192
2018-09-23T05:25:48.750Z,224
2018-09-23T05:26:49.425Z,244
2018-09-23T05:27:50.100Z,264
2018-09-23T05:28:50.776Z,264
2018-09-23T05:29:51.451Z,248
2018-09-23T05:30:52.180Z,228
2018-09-23T05:31:52.800Z,212
2018-09-23T05:32:53.476Z,208
2018-09-23T05:33:54.149Z,228
2018-09-23T05:34:54.823Z,276
2018-09-23T05:35:55.501Z,332
2018-09-23T05:36:56.226Z,356
2018-09-23T05:37:56.904Z,392
2018-09-23T05:38:57.579Z,428
2018-09-23T05:39:58.256Z,488
2018-09-23T05:40:58.947Z,588
2018-09-23T05:41:59.652Z,696
2018-09-23T05:43:00.327Z,716
2018-09-23T05:44:01.013Z,752
2018-09-23T05:45:01.683Z,836
2018-09-23T05:46:02.358Z,972
2018-09-23T05:47:03.034Z,1048
2018-09-23T05:48:03.710Z,1108
2018-09-23T05:49:04.395Z,1224
2018-09-23T05:50:05.064Z,1264
2018-09-23T05:51:05.741Z,1264
2018-09-23T05:52:06.418Z,1264
2018-09-23T05:53:07.114Z,1352
2018-09-23T05:54:07.772Z,1512
2018-09-23T05:55:08.449Z,1560
2018-09-23T05:56:09.126Z,1436
2018-09-23T05:57:09.806Z,1336
2018-09-23T05:58:10.532Z,1332
2018-09-23T05:59:11.211Z,1376
2018-09-23T06:00:11.890Z,1420
2018-09-23T06:01:12.564Z,1604
2018-09-23T06:02:13.242Z,1776
2018-09-23T06:03:13.975Z,1640
2018-09-23T06:04:14.596Z,1360
2018-09-23T06:05:15.274Z,1476
2018-09-23T06:06:15.998Z,1600
2018-09-23T06:07:16.674Z,1492
2018-09-23T06:08:17.353Z,1424
2018-09-23T06:09:18.033Z,1520
2018-09-23T06:10:18.707Z,1716
2018-09-23T06:11:19.505Z,1840
2018-09-23T06:12:20.107Z,1732
2018-09-23T06:13:20.783Z,1780
2018-09-23T06:14:21.460Z,1888
2018-09-23T06:15:22.141Z,1580
2018-09-23T06:16:22.819Z,1268
2018-09-23T06:17:23.494Z,1084
2018-09-23T06:18:24.284Z,928
2018-09-23T06:19:24.890Z,852
2018-09-23T06:20:25.567Z,812
2018-09-23T06:21:26.243Z,776
2018-09-23T06:22:26.922Z,756
2018-09-23T06:23:27.641Z,788
2018-09-23T06:24:28.318Z,828
2018-09-23T06:25:29.018Z,856
2018-09-23T06:26:29.716Z,916
2018-09-23T06:27:30.393Z,940
2018-09-23T06:28:31.072Z,956
2018-09-23T06:29:31.790Z,952
2018-09-23T06:30:32.466Z,912
2018-09-23T06:31:33.168Z,880
2018-09-23T06:32:33.898Z,904
2018-09-23T06:33:34.588Z,940
2018-09-23T06:34:35.265Z,964
2018-09-23T06:35:35.939Z,956
2018-09-23T06:36:36.615Z,968
2018-09-23T06:37:37.293Z,1004
2018-09-23T06:38:37.970Z,1040
2018-09-23T06:39:38.651Z,1096
2018-09-23T06:40:39.338Z,1228
2018-09-23T06:41:40.060Z,1344
2018-09-23T06:42:40.748Z,1360
2018-09-23T06:43:41.450Z,1440
2018-09-23T06:44:42.127Z,1580
2018-09-23T06:45:42.869Z,1648
2018-09-23T06:46:43.519Z,1644
2018-09-23T06:47:44.198Z,1576
2018-09-23T06:48:44.918Z,1484
2018-09-23T06:49:45.640Z,1456
2018-09-23T06:50:46.323Z,1696
2018-09-23T06:51:47.001Z,2012
2018-09-23T06:52:47.709Z,2064
2018-09-23T06:53:48.355Z,1964
2018-09-23T06:54:49.031Z,1900
2018-09-23T06:55:49.708Z,1904
2018-09-23T06:56:50.402Z,1940
2018-09-23T06:57:51.062Z,2020
2018-09-23T06:58:51.739Z,2048
2018-09-23T06:59:52.417Z,1972
2018-09-23T07:00:53.145Z,1796
2018-09-23T07:01:53.826Z,1624
2018-09-23T07:02:54.504Z,1576
2018-09-23T07:03:55.182Z,1552
2018-09-23T07:04:55.949Z,1548
2018-09-23T07:05:56.577Z,1616
2018-09-23T07:06:57.251Z,1648
2018-09-23T07:07:57.930Z,1540
2018-09-23T07:08:58.656Z,1432
2018-09-23T07:09:59.332Z,1388
2018-09-23T07:11:00.030Z,1376
2018-09-23T07:12:00.736Z,1372
2018-09-23T07:13:01.414Z,1372
2018-09-23T07:14:02.133Z,1468
2018-09-23T07:15:02.819Z,1596
2018-09-23T07:16:03.537Z,1644
2018-09-23T07:17:04.216Z,1724
2018-09-23T07:18:04.969Z,1840
2018-09-23T07:19:05.667Z,1964
2018-09-23T07:20:06.338Z,2076
2018-09-23T07:21:07.062Z,2140
2018-09-23T07:22:07.739Z,2092
2018-09-23T07:23:08.418Z,1912
2018-09-23T07:24:09.104Z,1808
2018-09-23T07:25:09.773Z,1848
2018-09-23T07:26:10.468Z,1956
2018-09-23T07:27:11.130Z,2032
2018-09-23T07:28:11.814Z,2048
2018-09-23T07:29:12.485Z,2040
2018-09-23T07:30:13.165Z,2072
2018-09-23T07:31:13.840Z,2212
2018-09-23T07:32:14.518Z,2340
2018-09-23T07:33:15.245Z,2356
2018-09-23T07:34:15.923Z,2344
2018-09-23T07:35:16.601Z,2332
2018-09-23T07:36:17.279Z,2304
2018-09-23T07:37:18.127Z,2292
2018-09-23T07:38:18.637Z,2392
2018-09-23T07:39:19.407Z,2552
2018-09-23T07:40:20.075Z,2752
2018-09-23T07:41:20.752Z,2812
2018-09-23T07:42:21.432Z,2680
2018-09-23T07:43:22.120Z,2600
2018-09-23T07:44:22.786Z,2600
2018-09-23T07:45:23.465Z,2564
2018-09-23T07:46:24.145Z,2520
2018-09-23T07:47:24.869Z,2536
2018-09-23T07:48:25.546Z,2836
2018-09-23T07:49:26.225Z,3092
2018-09-23T07:50:26.905Z,3072
2018-09-23T07:51:27.629Z,2800
2018-09-23T07:52:28.304Z,2476
2018-09-23T07:53:28.982Z,2468
2018-09-23T07:54:29.658Z,2484
2018-09-23T07:55:30.384Z,2408
2018-09-23T07:56:31.076Z,2308
2018-09-23T07:57:31.734Z,2252
2018-09-23T07:58:32.448Z,2368
2018-09-23T07:59:33.088Z,2588
2018-09-23T08:00:33.767Z,2928
2018-09-23T08:01:34.463Z,3116
2018-09-23T08:02:35.168Z,2720
2018-09-23T08:03:35.869Z,2312
2018-09-23T08:04:36.561Z,2384
2018-09-23T08:05:37.238Z,2632
2018-09-23T08:06:37.919Z,2772
2018-09-23T08:07:38.594Z,2848
2018-09-23T08:08:39.273Z,2948
2018-09-23T08:09:39.953Z,3160
2018-09-23T08:10:40.633Z,3448
2018-09-23T08:11:41.310Z,3648
2018-09-23T08:12:42.101Z,3892
2018-09-23T08:13:42.878Z,4072
2018-09-23T08:14:43.771Z,4224
2018-09-23T08:15:44.048Z,4192
2018-09-23T08:16:44.752Z,4160
2018-09-23T08:17:45.434Z,4204
2018-09-23T08:18:46.112Z,4088
2018-09-23T08:19:46.983Z,3464
2018-09-23T08:20:47.540Z,3048
2018-09-23T08:21:48.190Z,3164
2018-09-23T08:22:48.875Z,3308
2018-09-23T08:23:49.550Z,3472
2018-09-23T08:24:50.229Z,3896
2018-09-23T08:25:50.908Z,3840
2018-09-23T08:26:51.588Z,3448
2018-09-23T08:27:52.313Z,3372
2018-09-23T08:28:52.994Z,3548
2018-09-23T08:29:53.676Z,3984
2018-09-23T08:30:54.355Z,4372
2018-09-23T08:31:55.044Z,4328
2018-09-23T08:32:55.785Z,4008
2018-09-23T08:33:56.445Z,4124
2018-09-23T08:34:57.122Z,4496
2018-09-23T08:35:57.845Z,4596
2018-09-23T08:36:58.536Z,4524
2018-09-23T08:37:59.284Z,4316
2018-09-23T08:38:59.970Z,4252
2018-09-23T08:40:00.677Z,4292
2018-09-23T08:41:01.380Z,4220
2018-09-23T08:42:02.060Z,4256
2018-09-23T08:43:02.816Z,4328
2018-09-23T08:44:03.457Z,4036
2018-09-23T08:45:04.138Z,3748
2018-09-23T08:46:04.866Z,3500
2018-09-23T08:47:05.538Z,3412
2018-09-23T08:48:06.371Z,3412
2018-09-23T08:49:06.945Z,3560
2018-09-23T08:50:07.624Z,3556
2018-09-23T08:51:08.304Z,3272
2018-09-23T08:52:09.010Z,3456
2018-09-23T08:53:09.664Z,4284
2018-09-23T08:54:10.344Z,5008
2018-09-23T08:55:11.063Z,5800
2018-09-23T08:56:11.744Z,6960
2018-09-23T08:57:12.420Z,8120
2018-09-23T08:58:13.099Z,9076
2018-09-23T08:59:13.778Z,9204
2018-09-23T09:00:14.504Z,8404
2018-09-23T09:01:15.183Z,6880
2018-09-23T09:02:15.865Z,5632
2018-09-23T09:03:16.591Z,5192
2018-09-23T09:04:17.274Z,4820
2018-09-23T09:05:18.004Z,4604
2018-09-23T09:06:18.716Z,4860
2018-09-23T09:07:19.443Z,4648
2018-09-23T09:08:20.154Z,3980
2018-09-23T09:09:20.851Z,3536
2018-09-23T09:10:21.534Z,3632
2018-09-23T09:11:22.255Z,3852
2018-09-23T09:12:22.894Z,3992
2018-09-23T09:13:23.595Z,4492
2018-09-23T09:14:24.312Z,5192
2018-09-23T09:15:25.028Z,5164
2018-09-23T09:16:25.710Z,5280
2018-09-23T09:17:26.392Z,5744
2018-09-23T09:18:27.293Z,6444
2018-09-23T09:19:27.835Z,6596
2018-09-23T09:20:28.562Z,5908
2018-09-23T09:21:29.244Z,5244
2018-09-23T09:22:29.969Z,4808
2018-09-23T09:23:30.649Z,4480
2018-09-23T09:24:31.346Z,4580
2018-09-23T09:25:32.055Z,5032
2018-09-23T09:26:32.770Z,5500
2018-09-23T09:27:33.454Z,5808
2018-09-23T09:28:34.154Z,5908
2018-09-23T09:29:34.863Z,5656
2018-09-23T09:30:35.582Z,5248
2018-09-23T09:31:36.310Z,5356
2018-09-23T09:32:37.025Z,5540
2018-09-23T09:33:37.931Z,5452
2018-09-23T09:34:38.654Z,5424
2018-09-23T09:35:39.342Z,5116
2018-09-23T09:36:40.067Z,4600
2018-09-23T09:37:40.790Z,4316
2018-09-23T09:38:41.475Z,4460
2018-09-23T09:39:42.203Z,4764
2018-09-23T09:40:42.925Z,4884
2018-09-23T09:41:43.611Z,4752
2018-09-23T09:42:44.288Z,4652
2018-09-23T09:43:44.968Z,4712
2018-09-23T09:44:45.666Z,4780
2018-09-23T09:45:46.398Z,4996
2018-09-23T09:46:47.095Z,5204
2018-09-23T09:47:47.778Z,5300
2018-09-23T09:48:48.468Z,5644
2018-09-23T09:49:49.188Z,5072
2018-09-23T09:50:49.868Z,5028
2018-09-23T09:51:50.548Z,4916
2018-09-23T09:52:51.238Z,4428
2018-09-23T09:53:51.961Z,4616
2018-09-23T09:54:52.649Z,5400
2018-09-23T09:55:53.368Z,5600
2018-09-23T09:56:54.048Z,5400
2018-09-23T09:57:54.730Z,5232
2018-09-23T09:58:55.411Z,4716
2018-09-23T09:59:56.092Z,4168
2018-09-23T10:00:56.773Z,4148
2018-09-23T10:01:57.454Z,5140
2018-09-23T10:02:58.135Z,5784
2018-09-23T10:03:58.915Z,5840
2018-09-23T10:04:59.496Z,5748
2018-09-23T10:06:00.178Z,5796
2018-09-23T10:07:00.860Z,5568
2018-09-23T10:08:01.541Z,4656
2018-09-23T10:09:02.224Z,4552
2018-09-23T10:10:02.907Z,4552
2018-09-23T10:11:03.585Z,4408
2018-09-23T10:12:04.269Z,5148
2018-09-23T10:13:04.997Z,5968
2018-09-23T10:14:05.723Z,5772
2018-09-23T10:15:06.406Z,5392
2018-09-23T10:16:07.091Z,5448
2018-09-23T10:17:07.766Z,5776
2018-09-23T10:18:08.447Z,5612
2018-09-23T10:19:09.127Z,4932
2018-09-23T10:20:09.809Z,4472
2018-09-23T10:21:10.492Z,4396
2018-09-23T10:22:11.172Z,4116
2018-09-23T10:23:11.966Z,3932
2018-09-23T10:24:12.531Z,4264
2018-09-23T10:25:13.213Z,4552
2018-09-23T10:26:13.895Z,4768
2018-09-23T10:27:14.575Z,5188
2018-09-23T10:28:15.262Z,5600
2018-09-23T10:29:15.984Z,5852
2018-09-23T10:30:16.666Z,5580
2018-09-23T10:31:17.387Z,5312
2018-09-23T10:32:18.049Z,5324
2018-09-23T10:33:18.754Z,4856
2018-09-23T10:34:19.476Z,4340
2018-09-23T10:35:20.161Z,3836
2018-09-23T10:36:20.878Z,3508
2018-09-23T10:37:21.569Z,3368
2018-09-23T10:38:22.300Z,3356
2018-09-23T10:39:22.932Z,3360
2018-09-23T10:40:23.615Z,3504
2018-09-23T10:41:24.378Z,3696
2018-09-23T10:42:25.022Z,3768
2018-09-23T10:43:25.705Z,3652
2018-09-23T10:44:26.387Z,3696
2018-09-23T10:45:27.067Z,3660
2018-09-23T10:46:27.800Z,3564
2018-09-23T10:47:28.478Z,4020
2018-09-23T10:48:29.161Z,4760
2018-09-23T10:49:29.842Z,5184
2018-09-23T10:50:30.526Z,5452
2018-09-23T10:51:31.251Z,5208
2018-09-23T10:52:31.932Z,4116
2018-09-23T10:53:32.613Z,3616
2018-09-23T10:54:33.303Z,3912
2018-09-23T10:55:34.089Z,4228
2018-09-23T10:56:34.722Z,3860
2018-09-23T10:57:35.427Z,3132
2018-09-23T10:58:36.108Z,3080
2018-09-23T10:59:36.794Z,3160
2018-09-23T11:00:37.471Z,3088
2018-09-23T11:01:38.156Z,3408
2018-09-23T11:02:38.880Z,3740
2018-09-23T11:03:39.565Z,4020
2018-09-23T11:04:40.240Z,4028
2018-09-23T11:05:40.922Z,3844
2018-09-23T11:06:41.602Z,3732
2018-09-23T11:07:42.326Z,3300
2018-09-23T11:08:42.999Z,2884
2018-09-23T11:09:43.794Z,3008
2018-09-23T11:10:44.444Z,3064
2018-09-23T11:11:45.125Z,3232
2018-09-23T11:12:45.805Z,3088
2018-09-23T11:13:46.487Z,3324
2018-09-23T11:14:47.169Z,3452
2018-09-23T11:15:47.849Z,3432
2018-09-23T11:16:48.528Z,3252
2018-09-23T11:17:49.208Z,3196
2018-09-23T11:18:49.891Z,3208
2018-09-23T11:19:50.573Z,3668
2018-09-23T11:20:51.253Z,3956
2018-09-23T11:21:51.933Z,4048
2018-09-23T11:22:52.613Z,4156
2018-09-23T11:23:53.292Z,4176
2018-09-23T11:24:54.072Z,4340
2018-09-23T11:25:54.719Z,5084
2018-09-23T11:26:55.431Z,5316
2018-09-23T11:27:56.144Z,4768
2018-09-23T11:28:56.843Z,4160
2018-09-23T11:29:57.524Z,3572
2018-09-23T11:30:58.204Z,3152
2018-09-23T11:31:58.910Z,2972
2018-09-23T11:32:59.610Z,3224
2018-09-23T11:34:00.290Z,3480
2018-09-23T11:35:00.971Z,3512
2018-09-23T11:36:01.653Z,3364
2018-09-23T11:37:02.335Z,3336
2018-09-23T11:38:03.049Z,3504
2018-09-23T11:39:03.745Z,3764
2018-09-23T11:40:04.511Z,4260
2018-09-23T11:41:05.124Z,4248
2018-09-23T11:42:05.831Z,3896
2018-09-23T11:43:06.513Z,3732
2018-09-23T11:44:07.195Z,3932
2018-09-23T11:45:07.880Z,4264
2018-09-23T11:46:08.575Z,4500
2018-09-23T11:47:09.331Z,4640
2018-09-23T11:48:10.003Z,4372
2018-09-23T11:49:10.688Z,3852
2018-09-23T11:50:11.364Z,3384
2018-09-23T11:51:12.046Z,3396
2018-09-23T11:52:12.728Z,3668
2018-09-23T11:53:13.459Z,3884
2018-09-23T11:54:14.202Z,4084
2018-09-23T11:55:14.907Z,4528
2018-09-23T11:56:15.589Z,5156
2018-09-23T11:57:16.267Z,5340
2018-09-23T11:58:16.948Z,6000
2018-09-23T11:59:17.627Z,6016
2018-09-23T12:00:18.309Z,5744
2018-09-23T12:01:18.989Z,5000
2018-09-23T12:02:19.689Z,4228
2018-09-23T12:03:20.399Z,4316
2018-09-23T12:04:21.113Z,4040
2018-09-23T12:05:21.791Z,3880
2018-09-23T12:06:22.487Z,4152
2018-09-23T12:07:23.222Z,4300
2018-09-23T12:08:23.940Z,4168
2018-09-23T12:09:24.622Z,3800
2018-09-23T12:10:25.318Z,3200
2018-09-23T12:11:26.018Z,2996
2018-09-23T12:12:26.705Z,3496
2018-09-23T12:13:27.382Z,4196
2018-09-23T12:14:28.064Z,4904
2018-09-23T12:15:28.754Z,5100
2018-09-23T12:16:29.419Z,4548
2018-09-23T12:17:30.100Z,4488
2018-09-23T12:18:30.791Z,3972
2018-09-23T12:19:31.510Z,3764
2018-09-23T12:20:32.192Z,3720
2018-09-23T12:21:32.871Z,3892
2018-09-23T12:22:33.577Z,3620
2018-09-23T12:23:34.501Z,3400
2018-09-23T12:24:35.212Z,3208
2018-09-23T12:25:36.019Z,3204
2018-09-23T12:26:36.618Z,3808
2018-09-23T12:27:37.340Z,4872
2018-09-23T12:28:38.021Z,5332
2018-09-23T12:29:38.748Z,4752
2018-09-23T12:30:39.428Z,4184
2018-09-23T12:31:40.307Z,3636
2018-09-23T12:32:40.990Z,2932
2018-09-23T12:33:41.919Z,2196
2018-09-23T12:34:42.647Z,1816
2018-09-23T12:35:43.374Z,1544
2018-09-23T12:36:44.097Z,1376
2018-09-23T12:37:44.775Z,1140
2018-09-23T12:38:45.452Z,948
2018-09-23T12:39:46.148Z,992
2018-09-23T12:40:46.858Z,1144
2018-09-23T12:41:47.585Z,1220
2018-09-23T12:42:48.312Z,1508
2018-09-23T12:43:49.037Z,1592
2018-09-23T12:44:49.806Z,1476
2018-09-23T12:45:50.490Z,1420
2018-09-23T12:46:51.170Z,1504
2018-09-23T12:47:52.052Z,1332
2018-09-23T12:48:52.733Z,1432
2018-09-23T12:49:53.415Z,1724
2018-09-23T12:50:54.094Z,1964
2018-09-23T12:51:54.798Z,2056
2018-09-23T12:52:55.502Z,2076
2018-09-23T12:53:56.230Z,2096
2018-09-23T12:54:56.956Z,2156
2018-09-23T12:55:57.636Z,2420
2018-09-23T12:56:58.363Z,2680
2018-09-23T12:57:59.043Z,2808
2018-09-23T12:58:59.724Z,2872
2018-09-23T13:00:00.450Z,2544
2018-09-23T13:01:01.178Z,2364
2018-09-23T13:02:01.906Z,2488
2018-09-23T13:03:02.633Z,2680
2018-09-23T13:04:03.313Z,2504
2018-09-23T13:05:03.991Z,2192
2018-09-23T13:06:04.672Z,1832
2018-09-23T13:07:05.351Z,1636
2018-09-23T13:08:06.031Z,1588
2018-09-23T13:09:06.710Z,1872
2018-09-23T13:10:07.413Z,1648
2018-09-23T13:11:08.117Z,1720
2018-09-23T13:12:08.794Z,1572
2018-09-23T13:13:09.478Z,1472
2018-09-23T13:14:10.206Z,1560
2018-09-23T13:15:10.924Z,1792
2018-09-23T13:16:11.613Z,1844
2018-09-23T13:17:12.371Z,1584
2018-09-23T13:18:13.126Z,1308
2018-09-23T13:19:13.824Z,1124
2018-09-23T13:20:14.598Z,800
2018-09-23T13:21:15.276Z,680
2018-09-23T13:22:15.988Z,624
2018-09-23T13:23:16.678Z,532
2018-09-23T13:24:17.356Z,480
2018-09-23T13:25:18.035Z,488
2018-09-23T13:26:18.725Z,528
2018-09-23T13:27:19.390Z,600
2018-09-23T13:28:20.107Z,576
2018-09-23T13:29:20.794Z,636
2018-09-23T13:30:21.471Z,788
2018-09-23T13:31:22.149Z,924
2018-09-23T13:32:22.878Z,1020
2018-09-23T13:33:23.609Z,1024
2018-09-23T13:34:24.287Z,816
2018-09-23T13:35:24.967Z,656
2018-09-23T13:36:25.689Z,688
2018-09-23T13:37:26.368Z,768
2018-09-23T13:38:27.047Z,836
2018-09-23T13:39:27.728Z,896
2018-09-23T13:40:28.449Z,884
2018-09-23T13:41:29.137Z,716
2018-09-23T13:42:29.854Z,608
2018-09-23T13:43:30.576Z,460
2018-09-23T13:44:31.260Z,480
2018-09-23T13:45:31.979Z,576
2018-09-23T13:46:32.741Z,728
2018-09-23T13:47:33.338Z,736
2018-09-23T13:48:34.057Z,624
2018-09-23T13:49:34.738Z,648
2018-09-23T13:50:35.416Z,692
2018-09-23T13:51:36.093Z,776
2018-09-23T13:52:36.775Z,704
2018-09-23T13:53:37.451Z,648
2018-09-23T13:54:38.142Z,596
2018-09-23T13:55:38.853Z,588
2018-09-23T13:56:39.533Z,656
2018-09-23T13:57:40.210Z,928
2018-09-23T13:58:40.900Z,1044
2018-09-23T13:59:41.615Z,1148
2018-09-23T14:00:42.325Z,1208
2018-09-23T14:01:43.022Z,1120